Weather History for Keokuk, IA

Change the Weather History Date:

Thursday, January 9, 2014

  Actual Average Record
Temperature  
Mean Temperature 20 °F -  
Max Temperature 30 °F 30 °F 65 °F (1939)
Min Temperature 10 °F 14 °F -9 °F (1999)
Degree Days  
Heating Degree Days 45    
Moisture  
Dew Point 16 °F    
Average Humidity 85    
Maximum Humidity 100    
Minimum Humidity 67    
Precipitation  
Precipitation 0.00 in - - ()
Sea Level Pressure  
Sea Level Pressure 30.27 in    
Wind  
Wind Speed 7 mph (ESE)    
Max Wind Speed 12 mph    
Max Gust Speed -    
Visibility 8 miles    
Events Snow    
Averages and records for this station are not official NWS values.
T = Trace of Precipitation, MM = Missing Value Source: NWS Daily Summary

Daily Weather History Graph

Daily Weather History Graph

Search for Another Location

Airport:

Trip Planner

Search our weather history database for the weather conditions in past years. The results will help you decide how hot, cold, wet, or windy it might be!

Date:

Astronomy

Jan. 09, 2014 Rise Set
Actual Time 7:28 AM CST 4:57 PM CST
Civil Twilight 6:58 AM CST 5:27 PM CST
Nautical Twilight 6:24 AM CST 6:01 PM CST
Astronomical Twilight 5:51 AM CST 6:34 PM CST
Moon 12:24 PM CST (1/9) 1:36 AM CST (1/9)
Length of Visible Light 10h 29m
Length of Day
9h 28m
Waxing Gibbous, 66% of the Moon is Illuminated
Jan 9
Waxing Gibbous
Jan 15
Full
Jan 23
Last Quarter
Jan 30
New
Feb 6
First Quarter

Hourly Weather History & Observations

Time (CST) Temp. Windchill Dew Point Humidity Pressure Visibility Wind Dir Wind Speed Gust Speed Precip Events Conditions
12:15 AM 12.2 °F 2.9 °F 3.2 °F 67% 30.46 in 10.0 mi East 5.8 mph - N/A   Overcast
12:35 AM 12.2 °F 0.7 °F 5.0 °F 73% 30.45 in 10.0 mi ENE 8.1 mph - N/A   Overcast
12:55 AM 12.2 °F 0.7 °F 5.0 °F 73% 30.44 in 10.0 mi ENE 8.1 mph - N/A   Overcast
1:15 AM 12.2 °F -0.2 °F 5.0 °F 73% 30.43 in 10.0 mi ENE 9.2 mph - N/A   Overcast
1:35 AM 12.2 °F -0.2 °F 5.0 °F 73% 30.43 in 10.0 mi ENE 9.2 mph - N/A   Overcast
1:55 AM 12.2 °F 0.7 °F 5.0 °F 73% 30.43 in 10.0 mi ENE 8.1 mph - N/A   Overcast
2:15 AM 12.2 °F -0.2 °F 5.0 °F 73% 30.43 in 10.0 mi ENE 9.2 mph - N/A   Overcast
2:35 AM 12.2 °F 0.7 °F 3.2 °F 67% 30.43 in 10.0 mi ENE 8.1 mph - N/A   Overcast
2:55 AM 12.2 °F 0.7 °F 3.2 °F 67% 30.43 in 10.0 mi ENE 8.1 mph - N/A   Overcast
3:15 AM 12.2 °F 1.7 °F 3.2 °F 67% 30.42 in 10.0 mi East 6.9 mph - N/A   Scattered Clouds
3:35 AM 10.4 °F -0.4 °F 3.2 °F 73% 30.42 in 10.0 mi ENE 6.9 mph - N/A   Mostly Cloudy
3:55 AM 10.4 °F -0.4 °F 3.2 °F 73% 30.41 in 10.0 mi ENE 6.9 mph - N/A   Overcast
4:15 AM 10.4 °F -0.4 °F 3.2 °F 73% 30.41 in 10.0 mi ENE 6.9 mph - N/A   Overcast
4:35 AM 12.2 °F 1.7 °F 5.0 °F 73% 30.40 in 10.0 mi ENE 6.9 mph - N/A   Overcast
4:55 AM 12.2 °F -0.2 °F 5.0 °F 73% 30.38 in 10.0 mi East 9.2 mph - N/A   Overcast
5:15 AM 12.2 °F -0.2 °F 5.0 °F 73% 30.38 in 10.0 mi East 9.2 mph - N/A   Overcast
5:35 AM 12.2 °F 0.7 °F 6.8 °F 79% 30.37 in 10.0 mi East 8.1 mph - N/A   Overcast
5:55 AM 14.0 °F 3.9 °F 6.8 °F 73% 30.37 in 10.0 mi East 6.9 mph - N/A   Overcast
6:15 AM 14.0 °F 2.0 °F 6.8 °F 73% 30.37 in 10.0 mi East 9.2 mph - N/A   Overcast
6:35 AM 14.0 °F 0.5 °F 8.6 °F 79% 30.36 in 10.0 mi East 11.5 mph - N/A   Overcast
6:55 AM 14.0 °F 0.5 °F 8.6 °F 79% 30.35 in 8.0 mi East 11.5 mph - N/A Snow Light Snow
7:15 AM 14.0 °F 1.2 °F 8.6 °F 79% 30.35 in 10.0 mi East 10.4 mph - N/A   Overcast
7:35 AM 14.0 °F 1.2 °F 10.4 °F 86% 30.34 in 9.0 mi East 10.4 mph - N/A   Overcast
7:55 AM 15.8 °F 4.2 °F 10.4 °F 79% 30.34 in 5.0 mi East 9.2 mph - N/A Snow Light Snow
8:15 AM 15.8 °F 3.4 °F 12.2 °F 86% 30.33 in 1.5 mi East 10.4 mph - N/A Snow Light Snow
8:35 AM 15.8 °F 2.7 °F 12.2 °F 86% 30.33 in 9.0 mi East 11.5 mph - N/A   Overcast
8:55 AM 15.8 °F 3.4 °F 12.2 °F 86% 30.33 in 9.0 mi East 10.4 mph - N/A   Overcast
9:15 AM 17.6 °F 5.7 °F 12.2 °F 79% 30.32 in 9.0 mi ESE 10.4 mph - N/A   Overcast
9:35 AM 17.6 °F 6.4 °F 14.0 °F 86% 30.32 in 10.0 mi ESE 9.2 mph - N/A   Overcast
9:55 AM 17.6 °F 7.3 °F 14.0 °F 86% 30.32 in 10.0 mi East 8.1 mph - N/A   Overcast
10:15 AM 17.6 °F 7.3 °F 14.0 °F 86% 30.32 in 10.0 mi ESE 8.1 mph - N/A   Overcast
10:35 AM 19.4 °F 10.4 °F 15.8 °F 86% 30.32 in 10.0 mi ESE 6.9 mph - N/A   Overcast
10:55 AM 19.4 °F 8.6 °F 15.8 °F 86% 30.31 in 10.0 mi SE 9.2 mph - N/A   Overcast
11:15 AM 19.4 °F 8.6 °F 15.8 °F 86% 30.30 in 9.0 mi ESE 9.2 mph - N/A   Overcast
11:35 AM 19.4 °F 10.4 °F 17.6 °F 93% 30.28 in 6.0 mi ESE 6.9 mph - N/A Snow Light Snow
11:55 AM 21.2 °F 12.6 °F 17.6 °F 86% 30.26 in 6.0 mi ESE 6.9 mph - N/A   Mostly Cloudy
12:15 PM 21.2 °F 12.6 °F 17.6 °F 86% 30.25 in 4.0 mi ESE 6.9 mph - N/A   Overcast
12:35 PM 21.2 °F 12.6 °F 19.4 °F 93% 30.23 in 4.0 mi ESE 6.9 mph - N/A   Overcast
12:55 PM 21.2 °F 12.6 °F 19.4 °F 93% 30.21 in 5.0 mi ESE 6.9 mph - N/A   Overcast
1:15 PM 21.2 °F 12.6 °F 19.4 °F 93% 30.21 in 5.0 mi ESE 6.9 mph - N/A   Overcast
1:35 PM 23.0 °F 14.7 °F 19.4 °F 86% 30.20 in 8.0 mi ESE 6.9 mph - N/A   Overcast
1:55 PM 23.0 °F 15.8 °F 19.4 °F 86% 30.19 in 9.0 mi ESE 5.8 mph - N/A   Overcast
2:35 PM 23.0 °F 14.7 °F 21.2 °F 93% 30.19 in - ESE 6.9 mph - N/A   Overcast
2:55 PM 23.0 °F 15.8 °F 21.2 °F 93% 30.18 in 6.0 mi ESE 5.8 mph - N/A   Overcast
3:15 PM 23.0 °F 15.8 °F 21.2 °F 93% 30.18 in 6.0 mi ESE 5.8 mph - N/A   Overcast
3:35 PM 23.0 °F 15.8 °F 21.2 °F 93% 30.19 in 7.0 mi ESE 5.8 mph - N/A   Overcast
3:55 PM 24.8 °F 20.5 °F 21.2 °F 86% 30.18 in 7.0 mi SE 3.5 mph - N/A   Overcast
4:15 PM 24.8 °F 19.1 °F 23.0 °F 93% 30.18 in 6.0 mi ESE 4.6 mph - N/A   Overcast
5:15 PM 24.8 °F 17.9 °F 23.0 °F 93% 30.17 in 8.0 mi SE 5.8 mph - N/A   Unknown
5:35 PM 24.8 °F 17.9 °F 23.0 °F 93% 30.16 in 10.0 mi SE 5.8 mph - N/A   Overcast
5:55 PM 24.8 °F 17.9 °F 23.0 °F 93% 30.16 in 10.0 mi SE 5.8 mph - N/A   Overcast
6:15 PM 24.8 °F 17.9 °F 23.0 °F 93% 30.16 in 10.0 mi SE 5.8 mph - N/A   Overcast
6:35 PM 24.8 °F 16.9 °F 23.0 °F 93% 30.15 in 10.0 mi SE 6.9 mph - N/A   Overcast
6:55 PM 24.8 °F 17.9 °F 24.8 °F 100% 30.15 in 10.0 mi SE 5.8 mph - N/A   Overcast
7:15 PM 26.6 °F 20.0 °F 24.8 °F 93% 30.15 in 9.0 mi SE 5.8 mph - N/A   Overcast
7:35 PM 26.6 °F 20.0 °F 24.8 °F 93% 30.15 in 8.0 mi SSE 5.8 mph - N/A   Overcast
7:55 PM 26.6 °F 21.2 °F 24.8 °F 93% 30.15 in 7.0 mi SSE 4.6 mph - N/A   Overcast
8:15 PM 26.6 °F 21.2 °F 24.8 °F 93% 30.14 in 7.0 mi SE 4.6 mph - N/A   Overcast
8:35 PM 26.6 °F 21.2 °F 24.8 °F 93% 30.14 in 6.0 mi SE 4.6 mph - N/A   Overcast
8:55 PM 26.6 °F 21.2 °F 24.8 °F 93% 30.13 in 6.0 mi SE 4.6 mph - N/A   Overcast
9:15 PM 26.6 °F - 24.8 °F 93% 30.13 in 6.0 mi Calm Calm - N/A   Overcast
9:35 PM 26.6 °F 22.6 °F 26.6 °F 100% 30.13 in 6.0 mi SSE 3.5 mph - N/A   Overcast
9:55 PM 28.4 °F 23.3 °F 26.6 °F 93% 30.12 in 5.0 mi SSE 4.6 mph - N/A   Overcast
10:15 PM 28.4 °F 24.6 °F 26.6 °F 93% 30.12 in 5.0 mi SSE 3.5 mph - N/A   Overcast
10:35 PM 28.4 °F - 26.6 °F 93% 30.12 in 4.0 mi Calm Calm - N/A   Overcast
10:55 PM 28.4 °F 24.6 °F 26.6 °F 93% 30.10 in 4.0 mi SSE 3.5 mph - N/A   Overcast
11:15 PM 28.4 °F 24.6 °F 28.4 °F 100% 30.09 in 4.0 mi SSE 3.5 mph - N/A   Overcast
11:35 PM 30.2 °F 26.7 °F 28.4 °F 93% 30.10 in 4.0 mi South 3.5 mph - N/A   Overcast
11:55 PM 30.2 °F 23.4 °F 28.4 °F 93% 30.09 in 3.0 mi South 6.9 mph - N/A   Overcast